Time;durP1;ratioP1;P1;durP2;ratioP2;P2;SDS_P1;SDS_P2;PMS_P1;PMS_P2;Temp;Humidity;BMP_temperature;BMP_pressure;BME280_temperature;BME280_humidity;BME280_pressure;Samples;Min_cycle;Max_cycle;Signal;HPM_P1;HPM_P2
2021/08/16 00:02:07;;;;;;;3.07;1.80;;;26.10;53.90;;;;;;5110535;27;20206;-67
2021/08/16 00:04:40;;;;;;;2.53;1.67;;;26.10;53.90;;;;;;5092303;28;20574;-67
2021/08/16 00:07:11;;;;;;;2.00;1.50;;;26.10;54.00;;;;;;5111841;27;20201;-67
2021/08/16 00:09:40;;;;;;;3.73;1.80;;;26.10;54.00;;;;;;5111309;28;20646;-67
2021/08/16 00:12:09;;;;;;;2.30;1.73;;;26.10;53.90;;;;;;5093657;28;20204;-67
2021/08/16 00:14:39;;;;;;;2.20;1.50;;;26.10;54.00;;;;;;5112295;27;20236;-67
2021/08/16 00:17:12;;;;;;;2.17;1.50;;;26.10;54.00;;;;;;5092295;28;20205;-67
2021/08/16 00:19:54;;;;;;;2.87;1.80;;;26.10;54.00;;;;;;5113230;27;20287;-67
2021/08/16 00:22:26;;;;;;;2.37;1.80;;;26.10;53.90;;;;;;5111447;27;20207;-67
2021/08/16 00:24:54;;;;;;;2.27;1.67;;;26.10;54.00;;;;;;5120523;27;20192;-67
2021/08/16 00:27:25;;;;;;;1.90;1.70;;;26.10;54.00;;;;;;5110638;27;20200;-67
2021/08/16 00:29:57;;;;;;;3.20;1.70;;;26.10;54.00;;;;;;5110891;27;20654;-67
2021/08/16 00:32:29;;;;;;;2.13;1.70;;;26.10;54.00;;;;;;5091909;28;20197;-67
2021/08/16 00:34:59;;;;;;;2.13;1.70;;;26.10;54.00;;;;;;5114315;27;20287;-67
2021/08/16 00:37:29;;;;;;;1.90;1.60;;;26.10;54.00;;;;;;5110926;28;20184;-67
2021/08/16 00:39:59;;;;;;;2.83;1.70;;;26.10;54.00;;;;;;5111299;27;20616;-67
2021/08/16 00:42:30;;;;;;;2.13;1.47;;;26.00;53.90;;;;;;5111917;27;20523;-67
2021/08/16 00:45:03;;;;;;;2.80;2.10;;;26.00;53.90;;;;;;5092261;28;20208;-67
2021/08/16 00:47:33;;;;;;;2.70;1.50;;;26.10;54.00;;;;;;5111017;28;20192;-67
2021/08/16 00:50:05;;;;;;;2.47;1.70;;;26.10;54.00;;;;;;5109098;27;20196;-67
2021/08/16 00:52:34;;;;;;;2.37;1.67;;;26.00;54.00;;;;;;5084583;28;20180;-68
2021/08/16 00:55:09;;;;;;;2.97;1.67;;;26.10;54.00;;;;;;5093045;28;20632;-67
2021/08/16 00:57:44;;;;;;;2.93;1.50;;;26.00;53.90;;;;;;5116049;27;20207;-67
2021/08/16 01:00:20;;;;;;;2.47;1.60;;;26.10;54.00;;;;;;5111786;27;20197;-67
2021/08/16 01:02:52;;;;;;;2.13;1.53;;;26.00;53.90;;;;;;5094102;27;20707;-67
2021/08/16 01:05:24;;;;;;;4.13;1.70;;;26.00;53.90;;;;;;5109712;28;20809;-67
2021/08/16 01:07:54;;;;;;;3.23;2.03;;;26.00;54.00;;;;;;5096901;28;20203;-67
2021/08/16 01:10:30;;;;;;;3.27;1.63;;;26.00;53.90;;;;;;5093218;28;20208;-67
2021/08/16 01:13:00;;;;;;;3.23;1.63;;;26.00;54.00;;;;;;5089493;28;20205;-67
2021/08/16 01:15:30;;;;;;;2.70;1.63;;;26.00;54.00;;;;;;5110633;28;20228;-67
2021/08/16 01:17:59;;;;;;;1.77;1.53;;;26.00;54.00;;;;;;5110803;27;20408;-67
2021/08/16 01:20:32;;;;;;;1.63;1.50;;;26.00;54.00;;;;;;5096195;27;20188;-67
2021/08/16 01:23:11;;;;;;;3.10;1.73;;;26.00;54.00;;;;;;5110225;28;20557;-67
2021/08/16 01:25:51;;;;;;;2.90;1.70;;;26.00;54.00;;;;;;5114487;27;20203;-67
2021/08/16 01:28:24;;;;;;;2.30;1.70;;;26.00;54.00;;;;;;5110045;28;20211;-67
2021/08/16 01:31:05;;;;;;;2.77;1.83;;;25.90;53.90;;;;;;5112459;27;20204;-67
2021/08/16 01:33:38;;;;;;;2.77;1.93;;;26.00;54.10;;;;;;5110613;28;20196;-67
2021/08/16 01:36:08;;;;;;;2.20;1.50;;;25.90;53.90;;;;;;5094178;28;20539;-67
2021/08/16 01:38:40;;;;;;;2.17;1.40;;;25.90;53.90;;;;;;5121233;27;20247;-67
2021/08/16 01:41:15;;;;;;;2.50;1.53;;;25.90;53.90;;;;;;5112576;27;20285;-67
2021/08/16 01:43:47;;;;;;;1.60;1.40;;;25.90;54.00;;;;;;5109914;28;20838;-67
2021/08/16 01:46:16;;;;;;;3.33;1.50;;;25.90;53.90;;;;;;5110340;28;20200;-67
2021/08/16 01:48:50;;;;;;;2.83;1.50;;;25.90;54.00;;;;;;5114454;27;20287;-67
2021/08/16 01:51:21;;;;;;;2.20;1.40;;;25.90;53.90;;;;;;5109499;28;20223;-67
2021/08/16 01:53:53;;;;;;;2.97;1.53;;;25.90;53.90;;;;;;5110291;28;20204;-67
2021/08/16 01:56:24;;;;;;;2.83;1.77;;;25.90;53.90;;;;;;5107522;27;20261;-67
2021/08/16 01:58:55;;;;;;;3.07;1.90;;;25.90;53.90;;;;;;5091961;28;20212;-67
2021/08/16 02:01:25;;;;;;;2.77;1.80;;;25.90;53.90;;;;;;5109973;28;20242;-67
2021/08/16 02:04:02;;;;;;;3.20;2.07;;;25.90;53.90;;;;;;5075991;28;20655;-67
2021/08/16 02:06:33;;;;;;;3.57;2.03;;;25.90;53.90;;;;;;5109872;28;20231;-67
2021/08/16 02:09:03;;;;;;;2.90;1.80;;;25.80;53.80;;;;;;5110250;28;20209;-67
2021/08/16 02:11:37;;;;;;;2.10;1.60;;;25.80;53.80;;;;;;5074562;28;20191;-67
2021/08/16 02:14:08;;;;;;;2.53;1.90;;;25.80;53.80;;;;;;5110951;28;20283;-67
2021/08/16 02:16:37;;;;;;;7.33;1.87;;;25.90;53.90;;;;;;5113382;28;20239;-67
2021/08/16 02:19:08;;;;;;;2.50;1.73;;;25.80;53.90;;;;;;5109814;28;20657;-67
2021/08/16 02:21:37;;;;;;;2.30;1.50;;;25.80;53.90;;;;;;5110448;28;20667;-67
2021/08/16 02:24:10;;;;;;;2.30;1.60;;;25.80;53.90;;;;;;5113594;27;20974;-67
2021/08/16 02:26:43;;;;;;;3.13;1.80;;;25.80;53.90;;;;;;5114370;27;20680;-67
2021/08/16 02:29:13;;;;;;;2.27;1.70;;;25.80;53.90;;;;;;5114664;27;20200;-67
2021/08/16 02:31:43;;;;;;;2.50;1.93;;;25.80;53.90;;;;;;5096856;27;20188;-67
2021/08/16 02:34:14;;;;;;;3.07;1.70;;;25.80;53.90;;;;;;5112210;28;20196;-67
2021/08/16 02:36:42;;;;;;;2.30;1.40;;;25.80;53.90;;;;;;5115432;27;20210;-67
2021/08/16 02:39:11;;;;;;;2.07;1.50;;;25.80;53.90;;;;;;5096028;28;20216;-67
2021/08/16 02:41:52;;;;;;;3.33;1.80;;;25.80;53.90;;;;;;5106399;28;20751;-67
2021/08/16 02:44:22;;;;;;;1.90;1.40;;;25.80;53.90;;;;;;5113946;28;20216;-67
2021/08/16 02:46:57;;;;;;;4.63;1.70;;;25.80;53.90;;;;;;5115381;27;20201;-67
2021/08/16 02:49:25;;;;;;;2.40;1.50;;;25.80;53.90;;;;;;5122026;27;20196;-67
2021/08/16 02:51:54;;;;;;;1.40;1.30;;;25.80;53.90;;;;;;5097238;28;20209;-67
2021/08/16 02:54:22;;;;;;;4.03;1.73;;;25.70;53.80;;;;;;5113177;28;20630;-67
2021/08/16 02:56:53;;;;;;;4.03;1.90;;;25.70;53.90;;;;;;5113405;27;20292;-67
2021/08/16 02:59:23;;;;;;;2.93;1.60;;;25.80;53.90;;;;;;5108768;27;20224;-67
2021/08/16 03:01:53;;;;;;;3.73;2.00;;;25.70;53.80;;;;;;5094825;28;20253;-67
2021/08/16 03:04:24;;;;;;;2.97;1.63;;;25.70;53.80;;;;;;5113932;27;20587;-67
2021/08/16 03:06:54;;;;;;;2.87;1.80;;;25.70;53.90;;;;;;5112711;27;20176;-67
2021/08/16 03:09:26;;;;;;;2.23;1.50;;;25.70;53.90;;;;;;5096287;27;20609;-67
2021/08/16 03:11:54;;;;;;;2.87;1.60;;;25.70;53.90;;;;;;5080312;27;20214;-67
2021/08/16 03:14:24;;;;;;;3.20;1.83;;;25.70;54.00;;;;;;5116270;27;20208;-67
2021/08/16 03:16:52;;;;;;;3.27;1.80;;;25.70;54.00;;;;;;5111776;28;20239;-67
2021/08/16 03:19:22;;;;;;;3.23;1.40;;;25.70;53.90;;;;;;5113012;27;20213;-67
2021/08/16 03:21:51;;;;;;;3.13;2.00;;;25.70;53.90;;;;;;5112792;28;20583;-67
2021/08/16 03:24:19;;;;;;;2.60;1.60;;;25.70;53.90;;;;;;5095411;28;20562;-67
2021/08/16 03:26:49;;;;;;;3.27;1.87;;;25.70;53.90;;;;;;5079635;28;20634;-67
2021/08/16 03:29:19;;;;;;;2.60;1.73;;;25.70;53.90;;;;;;5077620;28;20660;-67
2021/08/16 03:31:48;;;;;;;2.63;1.57;;;25.70;53.90;;;;;;5115446;27;20204;-67
2021/08/16 03:34:19;;;;;;;2.97;1.77;;;25.70;53.90;;;;;;5094753;28;20204;-67
2021/08/16 03:36:48;;;;;;;2.80;1.80;;;25.70;53.90;;;;;;5094225;28;20581;-67
2021/08/16 03:39:19;;;;;;;2.93;1.70;;;25.70;54.00;;;;;;5110532;27;20212;-67
2021/08/16 03:41:53;;;;;;;3.57;1.77;;;25.70;54.00;;;;;;5112717;28;20536;-67
2021/08/16 03:44:27;;;;;;;2.57;1.70;;;25.70;54.00;;;;;;5111341;27;20215;-67
2021/08/16 03:46:58;;;;;;;2.13;1.70;;;25.70;54.00;;;;;;5113328;27;20192;-67
2021/08/16 03:49:29;;;;;;;2.87;1.90;;;25.70;54.00;;;;;;5111032;28;20606;-67
2021/08/16 03:51:58;;;;;;;2.67;1.60;;;25.70;54.00;;;;;;5113530;27;20208;-67
2021/08/16 03:54:31;;;;;;;2.87;1.73;;;25.70;54.00;;;;;;5111156;28;20227;-68
2021/08/16 03:57:02;;;;;;;4.30;1.80;;;25.60;53.90;;;;;;5109996;27;20413;-67
2021/08/16 03:59:34;;;;;;;2.80;1.87;;;25.70;54.00;;;;;;5111119;28;20216;-67
2021/08/16 04:02:04;;;;;;;3.17;2.00;;;25.60;53.90;;;;;;5108286;27;20206;-67
2021/08/16 04:04:48;;;;;;;2.37;2.13;;;25.60;54.00;;;;;;5110970;28;20192;-67
2021/08/16 04:07:19;;;;;;;2.70;1.80;;;25.60;54.00;;;;;;5112624;27;20219;-67
2021/08/16 04:09:52;;;;;;;2.30;1.77;;;25.60;54.00;;;;;;5125134;27;20525;-67
2021/08/16 04:12:25;;;;;;;3.10;2.00;;;25.60;54.00;;;;;;5109900;27;20215;-67
2021/08/16 04:14:56;;;;;;;4.23;2.40;;;25.60;54.00;;;;;;5111206;28;20584;-67
2021/08/16 04:17:29;;;;;;;3.40;2.00;;;25.60;54.00;;;;;;5120169;27;20207;-67
2021/08/16 04:19:59;;;;;;;3.13;2.03;;;25.60;54.00;;;;;;5111353;28;20289;-67
2021/08/16 04:22:28;;;;;;;2.37;1.90;;;25.60;54.10;;;;;;5104886;28;20243;-67
2021/08/16 04:24:58;;;;;;;2.23;1.97;;;25.60;54.10;;;;;;5112846;27;20208;-67
2021/08/16 04:27:29;;;;;;;3.00;2.03;;;25.60;54.10;;;;;;5101921;28;20207;-68
2021/08/16 04:30:14;;;;;;;2.07;1.80;;;25.60;54.10;;;;;;5111661;28;20605;-68
2021/08/16 04:33:26;;;;;;;4.00;2.03;;;25.60;54.10;;;;;;5115534;27;20797;-68
2021/08/16 04:36:03;;;;;;;3.97;1.80;;;25.60;54.10;;;;;;5119673;27;20260;-68
2021/08/16 04:38:35;;;;;;;3.10;1.90;;;25.50;54.00;;;;;;5117069;27;20557;-69
2021/08/16 04:41:08;;;;;;;2.90;2.07;;;25.50;54.00;;;;;;5111714;28;20211;-67
2021/08/16 04:43:37;;;;;;;3.57;2.07;;;25.50;54.00;;;;;;5112601;27;20203;-67
2021/08/16 04:46:06;;;;;;;2.93;2.10;;;25.50;54.00;;;;;;5109034;28;20652;-67
2021/08/16 04:48:40;;;;;;;1.93;1.70;;;25.50;54.00;;;;;;5111002;28;20238;-67
2021/08/16 04:51:12;;;;;;;3.00;2.17;;;25.50;54.00;;;;;;5120016;27;20198;-67
2021/08/16 04:53:42;;;;;;;3.90;2.30;;;25.50;54.00;;;;;;5107181;27;20226;-67
2021/08/16 04:56:11;;;;;;;2.50;1.90;;;25.50;54.00;;;;;;5109632;28;20196;-67
2021/08/16 04:58:41;;;;;;;4.07;2.03;;;25.50;54.00;;;;;;5110684;27;20201;-67
2021/08/16 05:01:13;;;;;;;2.13;1.90;;;25.50;54.00;;;;;;5109633;28;20188;-68
2021/08/16 05:03:42;;;;;;;3.23;2.20;;;25.50;54.00;;;;;;5111330;27;20200;-68
2021/08/16 05:06:12;;;;;;;3.17;2.10;;;25.50;54.60;;;;;;5111515;27;20645;-68
2021/08/16 05:08:44;;;;;;;3.60;2.10;;;25.50;54.00;;;;;;5092863;28;20199;-68
2021/08/16 05:11:13;;;;;;;3.13;2.20;;;25.50;54.00;;;;;;5110100;28;20188;-68
2021/08/16 05:13:46;;;;;;;2.60;1.70;;;25.50;54.00;;;;;;5111352;27;20686;-69
2021/08/16 05:16:18;;;;;;;2.83;1.97;;;25.50;54.00;;;;;;5107830;28;20236;-68
2021/08/16 05:18:46;;;;;;;3.03;2.07;;;25.50;54.00;;;;;;5105365;27;20203;-68
2021/08/16 05:21:14;;;;;;;3.33;2.17;;;25.50;54.00;;;;;;5092771;28;20207;-68
2021/08/16 05:23:46;;;;;;;3.10;1.80;;;25.50;54.00;;;;;;5110547;27;20200;-68
2021/08/16 05:26:17;;;;;;;2.50;2.13;;;25.50;54.00;;;;;;5109997;28;20530;-67
2021/08/16 05:28:47;;;;;;;3.70;2.53;;;25.50;53.90;;;;;;5110104;28;20642;-68
2021/08/16 05:31:19;;;;;;;3.83;2.47;;;25.50;54.00;;;;;;5111254;28;20215;-68
2021/08/16 05:33:50;;;;;;;3.03;2.20;;;25.50;54.00;;;;;;5108563;28;20265;-68
2021/08/16 05:36:20;;;;;;;3.53;2.00;;;25.50;53.90;;;;;;5110389;28;20238;-68
2021/08/16 05:38:54;;;;;;;3.63;2.00;;;25.50;53.90;;;;;;5121426;27;20579;-69
2021/08/16 05:41:24;;;;;;;3.77;2.37;;;25.50;54.00;;;;;;5111215;28;20196;-69
2021/08/16 05:43:56;;;;;;;4.33;2.67;;;25.50;54.00;;;;;;5110133;28;20223;-68
2021/08/16 05:46:28;;;;;;;3.47;2.33;;;25.50;54.00;;;;;;5109630;28;20779;-67
2021/08/16 05:48:57;;;;;;;3.37;2.40;;;25.50;54.00;;;;;;5109314;28;20189;-68
2021/08/16 05:51:27;;;;;;;2.87;2.03;;;25.50;54.00;;;;;;5076976;28;20204;-67
2021/08/16 05:53:57;;;;;;;3.37;2.17;;;25.50;54.00;;;;;;5096595;28;20208;-67
2021/08/16 05:56:25;;;;;;;4.20;2.33;;;25.50;53.90;;;;;;5104182;28;20196;-69
2021/08/16 05:58:58;;;;;;;3.17;2.37;;;25.50;54.00;;;;;;5106199;28;20559;-69
2021/08/16 06:01:27;;;;;;;3.10;2.07;;;25.50;54.00;;;;;;5110865;27;20196;-68
2021/08/16 06:03:57;;;;;;;3.23;2.20;;;25.50;54.00;;;;;;5109905;28;20301;-67
2021/08/16 06:06:28;;;;;;;3.43;2.27;;;25.50;54.00;;;;;;5108396;28;20193;-69
2021/08/16 06:08:58;;;;;;;3.37;2.47;;;25.50;54.00;;;;;;5115769;28;20239;-69
2021/08/16 06:11:28;;;;;;;2.90;2.03;;;25.50;54.00;;;;;;5109752;28;20196;-69
2021/08/16 06:13:58;;;;;;;4.07;2.50;;;25.50;54.00;;;;;;5084884;28;20207;-69
2021/08/16 06:16:31;;;;;;;2.73;2.20;;;25.50;54.00;;;;;;5082127;28;20811;-69
2021/08/16 06:18:59;;;;;;;2.10;1.90;;;25.50;54.00;;;;;;5089991;28;20208;-69
2021/08/16 06:21:28;;;;;;;2.70;2.03;;;25.50;53.90;;;;;;5100818;28;20217;-68
2021/08/16 06:23:58;;;;;;;3.33;2.23;;;25.50;53.90;;;;;;5092796;28;20196;-68
2021/08/16 06:26:31;;;;;;;3.30;2.00;;;25.50;53.90;;;;;;5095215;28;20192;-68
2021/08/16 06:29:00;;;;;;;3.40;2.47;;;25.50;53.90;;;;;;5087677;28;20208;-69
2021/08/16 06:31:32;;;;;;;3.67;2.20;;;25.50;53.90;;;;;;5102984;28;20509;-69
2021/08/16 06:34:05;;;;;;;2.40;2.00;;;25.50;53.90;;;;;;5088354;28;20205;-70
2021/08/16 06:36:40;;;;;;;3.40;2.30;;;25.50;54.50;;;;;;5096525;28;20208;-68
2021/08/16 06:39:18;;;;;;;2.53;1.90;;;25.50;53.90;;;;;;5092862;28;20216;-68
2021/08/16 06:41:55;;;;;;;3.90;2.63;;;25.50;53.90;;;;;;5096460;28;20192;-69
2021/08/16 06:44:39;;;;;;;2.87;2.30;;;25.50;53.90;;;;;;5089955;28;20193;-69
2021/08/16 06:47:23;;;;;;;3.03;2.10;;;25.50;53.90;;;;;;5103446;28;20279;-69
2021/08/16 06:49:52;;;;;;;2.67;2.00;;;25.40;53.90;;;;;;5086052;28;20199;-69
2021/08/16 06:52:22;;;;;;;3.60;2.50;;;25.50;53.90;;;;;;5087427;28;20209;-69
2021/08/16 06:54:53;;;;;;;2.10;1.90;;;25.50;53.90;;;;;;5090638;28;20573;-69
2021/08/16 06:57:26;;;;;;;3.40;2.20;;;25.50;53.90;;;;;;5088129;28;20203;-68
2021/08/16 06:59:58;;;;;;;4.00;2.30;;;25.50;53.90;;;;;;5087166;28;20223;-67
2021/08/16 07:02:28;;;;;;;3.43;2.27;;;25.50;53.90;;;;;;5088209;28;20212;-69
2021/08/16 07:04:59;;;;;;;4.53;2.27;;;25.50;53.90;;;;;;5088191;28;20265;-68
2021/08/16 07:07:30;;;;;;;3.77;2.23;;;25.50;53.90;;;;;;5093928;28;20287;-68
2021/08/16 07:09:58;;;;;;;3.63;2.50;;;25.50;53.90;;;;;;5094934;28;20295;-68
2021/08/16 07:12:27;;;;;;;2.33;2.13;;;25.50;53.90;;;;;;5074063;28;20209;-69
2021/08/16 07:14:59;;;;;;;3.13;2.57;;;25.50;53.80;;;;;;5088766;28;20209;-69
2021/08/16 07:17:29;;;;;;;3.20;2.77;;;25.50;53.90;;;;;;5087410;28;20229;-69
2021/08/16 07:20:03;;;;;;;2.67;2.27;;;25.50;53.80;;;;;;5088990;28;20228;-69
2021/08/16 07:22:35;;;;;;;3.50;2.30;;;25.50;53.80;;;;;;5095854;28;20250;-69
2021/08/16 07:25:05;;;;;;;3.97;2.43;;;25.50;53.90;;;;;;5089605;28;20215;-69
2021/08/16 07:27:38;;;;;;;2.30;2.10;;;25.50;53.90;;;;;;5080026;28;20197;-69
2021/08/16 07:30:13;;;;;;;3.47;2.67;;;25.50;53.90;;;;;;5089521;28;20693;-68
2021/08/16 07:32:44;;;;;;;2.63;2.33;;;25.50;53.90;;;;;;5082816;28;20900;-68
2021/08/16 07:35:15;;;;;;;2.70;2.30;;;25.50;53.90;;;;;;5089911;28;20204;-67
2021/08/16 07:37:46;;;;;;;3.30;2.30;;;25.50;53.90;;;;;;5091451;28;20200;-67
2021/08/16 07:40:20;;;;;;;3.40;2.37;;;25.50;53.90;;;;;;5081509;28;20701;-68
2021/08/16 07:42:50;;;;;;;3.67;2.30;;;25.50;54.00;;;;;;5091535;28;20208;-69
2021/08/16 07:45:20;;;;;;;2.97;2.20;;;25.50;54.00;;;;;;5097066;28;20201;-69
2021/08/16 07:47:51;;;;;;;2.97;2.20;;;25.50;54.00;;;;;;5092905;28;20203;-68
2021/08/16 07:50:24;;;;;;;4.27;2.73;;;25.50;54.00;;;;;;5091975;28;20197;-68
2021/08/16 07:52:54;;;;;;;6.90;3.30;;;25.50;54.00;;;;;;5080497;28;20296;-68
2021/08/16 07:55:23;;;;;;;11.27;3.50;;;25.50;54.10;;;;;;5096281;28;20204;-69
2021/08/16 07:57:54;;;;;;;10.93;5.27;;;25.50;54.10;;;;;;5089701;28;20208;-70
2021/08/16 08:00:24;;;;;;;16.90;5.90;;;25.50;54.80;;;;;;5098025;28;20212;-69
2021/08/16 08:02:54;;;;;;;16.97;6.20;;;25.50;54.20;;;;;;5090080;28;20614;-69
2021/08/16 08:05:29;;;;;;;20.00;6.90;;;25.50;54.20;;;;;;5091820;28;20626;-69
2021/08/16 08:08:00;;;;;;;18.27;6.23;;;25.50;54.20;;;;;;5089700;28;20197;-69
2021/08/16 08:10:32;;;;;;;16.07;6.37;;;25.50;54.20;;;;;;5094732;28;20219;-70
2021/08/16 08:13:03;;;;;;;20.43;6.63;;;25.50;54.20;;;;;;5089104;28;20546;-70
2021/08/16 08:15:32;;;;;;;15.77;6.53;;;25.50;54.20;;;;;;5094577;28;20859;-70
2021/08/16 08:18:00;;;;;;;19.03;6.27;;;25.50;54.20;;;;;;5093943;28;20234;-70
2021/08/16 08:20:31;;;;;;;14.53;6.20;;;25.50;54.20;;;;;;5102723;27;20221;-68
2021/08/16 08:23:05;;;;;;;12.17;5.60;;;25.50;54.20;;;;;;5093646;28;20197;-68
2021/08/16 08:25:40;;;;;;;17.17;6.63;;;25.50;54.20;;;;;;5112082;27;20571;-68
2021/08/16 08:28:13;;;;;;;11.30;5.43;;;25.50;54.20;;;;;;5092660;28;20257;-68
2021/08/16 08:30:44;;;;;;;18.33;5.67;;;25.50;54.30;;;;;;5118559;27;20197;-69
2021/08/16 08:33:17;;;;;;;10.13;5.20;;;25.50;54.30;;;;;;5110859;27;20680;-69
2021/08/16 08:35:59;;;;;;;12.33;5.40;;;25.50;54.30;;;;;;5094894;27;20298;-68
2021/08/16 08:38:30;;;;;;;10.40;4.73;;;25.50;54.20;;;;;;5110989;27;20621;-69
2021/08/16 08:41:03;;;;;;;11.47;4.97;;;25.50;54.20;;;;;;5110863;27;20661;-69
2021/08/16 08:43:35;;;;;;;10.27;4.83;;;25.50;54.80;;;;;;5114679;27;20637;-69
2021/08/16 08:46:06;;;;;;;8.63;4.67;;;25.50;54.20;;;;;;5111222;27;20507;-69
2021/08/16 08:48:37;;;;;;;9.33;4.67;;;25.50;54.30;;;;;;5088728;28;20238;-69
2021/08/16 08:51:06;;;;;;;8.97;4.47;;;25.50;54.20;;;;;;5099373;28;20200;-69
2021/08/16 08:53:35;;;;;;;6.30;3.90;;;25.50;54.30;;;;;;5110926;27;20219;-70
2021/08/16 08:56:09;;;;;;;8.53;4.30;;;25.50;54.30;;;;;;5113552;27;20193;-70
2021/08/16 08:58:40;;;;;;;9.32;4.68;;;25.50;54.30;;;;;;5102926;27;20421;-69
2021/08/16 09:01:09;;;;;;;6.77;3.87;;;25.50;54.30;;;;;;5110778;27;20212;-68
2021/08/16 09:03:52;;;;;;;6.93;3.83;;;25.60;54.50;;;;;;5116300;27;20208;-71
2021/08/16 09:06:42;;;;;;;6.10;3.53;;;25.60;54.60;;;;;;5111998;27;20207;-69
2021/08/16 09:09:15;;;;;;;6.10;3.47;;;25.70;54.60;;;;;;5097116;27;20566;-68
2021/08/16 09:11:51;;;;;;;5.37;2.87;;;25.60;54.40;;;;;;5094338;28;20226;-70
2021/08/16 09:14:22;;;;;;;4.60;3.20;;;25.70;54.50;;;;;;5112998;27;20222;-70
2021/08/16 09:16:51;;;;;;;3.63;2.90;;;25.70;54.40;;;;;;5108137;27;20809;-70
2021/08/16 09:19:24;;;;;;;4.77;3.20;;;25.80;54.40;;;;;;5092496;28;20219;-70
2021/08/16 09:22:08;;;;;;;6.00;3.13;;;25.80;54.40;;;;;;5076450;28;20215;-70
2021/08/16 09:24:39;;;;;;;4.00;2.63;;;25.80;54.40;;;;;;5109811;27;20200;-67
2021/08/16 09:27:10;;;;;;;3.83;2.37;;;25.90;54.90;;;;;;5106559;28;20249;-67
2021/08/16 09:29:51;;;;;;;5.17;2.07;;;25.80;55.00;;;;;;5107329;27;20725;-68
2021/08/16 09:32:31;;;;;;;3.57;1.80;;;25.70;55.10;;;;;;5107574;28;20284;-69
2021/08/16 09:35:12;;;;;;;3.57;2.07;;;25.80;55.50;;;;;;5110478;27;20204;-67
2021/08/16 09:37:52;;;;;;;5.23;2.20;;;25.80;55.40;;;;;;5090470;28;20515;-67
2021/08/16 09:40:36;;;;;;;5.77;2.20;;;25.70;55.40;;;;;;5110609;27;20224;-67
2021/08/16 09:43:09;;;;;;;4.13;2.10;;;25.70;55.60;;;;;;5107472;28;20197;-66
2021/08/16 09:45:43;;;;;;;3.30;1.90;;;25.70;56.70;;;;;;5110180;27;20432;-67
2021/08/16 09:48:25;;;;;;;4.57;2.03;;;25.70;57.50;;;;;;5094783;28;20188;-66
2021/08/16 09:51:00;;;;;;;2.50;1.83;;;25.80;57.70;;;;;;5109517;28;20224;-65
2021/08/16 09:53:29;;;;;;;3.67;2.20;;;25.70;57.70;;;;;;5112559;28;20304;-66
2021/08/16 09:56:05;;;;;;;3.07;1.90;;;25.80;57.70;;;;;;5108890;27;20212;-67
2021/08/16 09:58:41;;;;;;;3.07;2.00;;;25.80;58.00;;;;;;5096545;28;20554;-66
2021/08/16 10:01:15;;;;;;;3.80;2.07;;;25.80;58.30;;;;;;5092726;28;20218;-67
2021/08/16 10:03:46;;;;;;;3.47;2.00;;;25.80;60.00;;;;;;5088833;28;20208;-66
2021/08/16 10:06:18;;;;;;;3.83;2.33;;;25.90;59.60;;;;;;5091205;28;20200;-67
2021/08/16 10:08:52;;;;;;;2.87;1.97;;;25.90;59.10;;;;;;5110243;28;20215;-65
2021/08/16 10:11:24;;;;;;;5.20;2.00;;;25.90;59.90;;;;;;5109781;28;20215;-65
2021/08/16 10:13:56;;;;;;;2.73;2.07;;;25.90;59.50;;;;;;5116586;28;20207;-65
2021/08/16 10:16:40;;;;;;;3.70;2.00;;;25.90;59.60;;;;;;5105491;28;20243;-64
2021/08/16 10:19:19;;;;;;;3.30;1.80;;;25.90;60.10;;;;;;5092773;28;20207;-65
2021/08/16 10:21:51;;;;;;;5.40;2.10;;;25.90;59.60;;;;;;5108027;28;20216;-64
2021/08/16 10:24:30;;;;;;;4.63;2.00;;;25.90;58.90;;;;;;5108466;28;20215;-64
2021/08/16 10:27:09;;;;;;;9.07;2.10;;;25.80;58.40;;;;;;5089989;28;20275;-64
2021/08/16 10:29:40;;;;;;;4.10;2.20;;;25.70;58.90;;;;;;5090363;28;20201;-64
2021/08/16 10:32:20;;;;;;;2.60;1.90;;;25.60;58.50;;;;;;5069441;28;20194;-63
2021/08/16 10:35:06;;;;;;;3.13;2.30;;;25.60;58.40;;;;;;5087401;28;20204;-63
2021/08/16 10:37:46;;;;;;;3.77;2.30;;;25.50;57.90;;;;;;5104612;28;20208;-64
2021/08/16 10:40:26;;;;;;;3.33;2.40;;;25.50;57.90;;;;;;5094858;28;20341;-64
2021/08/16 10:43:15;;;;;;;3.70;2.40;;;25.50;58.00;;;;;;5116284;27;20352;-64
2021/08/16 10:45:55;;;;;;;5.30;2.63;;;25.40;57.80;;;;;;5093726;28;20200;-64
2021/08/16 10:49:00;;;;;;;3.97;2.20;;;25.40;58.90;;;;;;5092839;28;20954;-64
2021/08/16 10:51:49;;;;;;;3.13;2.13;;;25.40;60.70;;;;;;5094901;28;20209;-65
2021/08/16 10:54:25;;;;;;;4.77;2.23;;;25.40;60.10;;;;;;5110274;27;20301;-65
2021/08/16 10:56:56;;;;;;;4.93;2.43;;;25.40;59.70;;;;;;5093588;28;20203;-65
2021/08/16 10:59:26;;;;;;;4.03;2.20;;;25.40;60.10;;;;;;5096867;28;20288;-65
2021/08/16 11:01:58;;;;;;;3.87;2.30;;;25.50;59.80;;;;;;5092055;28;20232;-65
2021/08/16 11:04:37;;;;;;;3.50;2.33;;;25.50;59.10;;;;;;5111102;27;20733;-65
2021/08/16 11:07:09;;;;;;;4.57;2.37;;;25.50;60.00;;;;;;5110439;28;20287;-65
2021/08/16 11:09:43;;;;;;;6.80;3.03;;;25.50;59.60;;;;;;5092348;28;20577;-66
2021/08/16 11:12:18;;;;;;;4.23;2.67;;;25.50;59.10;;;;;;5100652;28;20205;-65
2021/08/16 11:14:49;;;;;;;4.93;2.73;;;25.50;57.90;;;;;;5108474;27;20685;-65
2021/08/16 11:17:27;;;;;;;5.27;2.80;;;25.50;59.20;;;;;;5109334;27;20247;-64
2021/08/16 11:20:16;;;;;;;4.67;2.60;;;25.50;58.80;;;;;;5101256;28;20208;-64
2021/08/16 11:22:55;;;;;;;7.30;3.47;;;25.50;58.70;;;;;;5112767;27;20212;-65
2021/08/16 11:25:24;;;;;;;7.43;3.17;;;25.50;57.80;;;;;;5110752;27;20276;-66
2021/08/16 11:28:06;;;;;;;5.50;3.40;;;25.50;58.30;;;;;;5115476;27;22012;-66
2021/08/16 11:30:35;;;;;;;6.87;3.37;;;25.40;56.50;;;;;;5110512;27;20200;-65
2021/08/16 11:33:07;;;;;;;7.33;4.13;;;25.40;57.10;;;;;;5088821;28;20199;-65
2021/08/16 11:35:36;;;;;;;6.07;3.60;;;25.40;56.20;;;;;;5107644;27;20295;-65
2021/08/16 11:38:13;;;;;;;7.10;4.20;;;25.40;56.90;;;;;;5100177;27;20196;-65
2021/08/16 11:40:40;;;;;;;6.20;4.30;;;25.40;55.70;;;;;;5090788;28;20204;-67
2021/08/16 11:43:23;;;;;;;6.60;4.10;;;25.40;55.20;;;;;;5111677;27;20265;-66
2021/08/16 11:46:14;;;;;;;4.97;4.00;;;25.40;55.80;;;;;;5102279;28;20640;-65
2021/08/16 11:48:53;;;;;;;5.63;4.63;;;25.40;55.40;;;;;;5103906;27;20196;-65
2021/08/16 11:51:33;;;;;;;9.37;4.13;;;25.40;56.00;;;;;;5109608;28;20658;-65
2021/08/16 11:54:05;;;;;;;7.40;4.83;;;25.50;57.20;;;;;;5073304;28;20199;-65
2021/08/16 11:56:35;;;;;;;6.47;5.03;;;25.50;55.70;;;;;;5107260;28;20184;-66
2021/08/16 11:59:13;;;;;;;7.20;5.23;;;25.40;55.30;;;;;;5107824;27;20215;-65
2021/08/16 12:01:43;;;;;;;7.87;5.37;;;25.50;57.00;;;;;;5091273;28;20298;-66
2021/08/16 12:04:16;;;;;;;7.73;5.50;;;25.50;55.80;;;;;;5098913;27;20849;-68
2021/08/16 12:06:54;;;;;;;7.27;5.77;;;25.50;54.40;;;;;;5111581;27;20188;-66
2021/08/16 12:09:36;;;;;;;6.70;5.90;;;25.50;54.80;;;;;;5093759;28;20219;-67
2021/08/16 12:12:05;;;;;;;8.37;5.90;;;25.50;54.40;;;;;;5104530;27;20776;-65
2021/08/16 12:14:38;;;;;;;7.97;6.30;;;25.50;55.60;;;;;;5105564;28;20196;-65
2021/08/16 12:17:25;;;;;;;7.63;5.73;;;25.60;54.30;;;;;;5084193;28;20236;-67
2021/08/16 12:20:14;;;;;;;8.93;6.70;;;25.60;55.00;;;;;;5084332;28;20205;-65
2021/08/16 12:23:01;;;;;;;8.43;6.37;;;25.60;54.10;;;;;;5088276;28;20231;-70
2021/08/16 12:25:33;;;;;;;8.27;6.20;;;25.60;53.10;;;;;;5096330;28;20197;-67
2021/08/16 12:28:08;;;;;;;12.43;7.27;;;25.60;52.80;;;;;;5082198;28;20212;-67
2021/08/16 12:30:40;;;;;;;7.87;6.37;;;25.60;53.20;;;;;;5084763;28;20253;-65
2021/08/16 12:33:15;;;;;;;9.43;7.20;;;25.70;53.90;;;;;;5087345;28;20189;-65
2021/08/16 12:35:59;;;;;;;7.70;6.60;;;25.70;53.30;;;;;;5084143;28;20645;-65
2021/08/16 12:38:32;;;;;;;11.50;7.30;;;25.70;53.50;;;;;;5087893;28;20200;-65
2021/08/16 12:41:10;;;;;;;8.03;6.73;;;25.60;52.50;;;;;;5101757;27;20225;-64
2021/08/16 12:43:47;;;;;;;10.20;7.10;;;25.60;52.60;;;;;;5086792;28;20200;-64
2021/08/16 12:46:36;;;;;;;9.90;7.50;;;25.50;52.80;;;;;;5081887;28;20219;-64
2021/08/16 12:49:17;;;;;;;10.87;7.17;;;25.50;52.10;;;;;;5088282;28;20204;-64
2021/08/16 12:51:45;;;;;;;12.67;7.53;;;25.40;51.90;;;;;;5088367;28;20798;-66
2021/08/16 12:54:17;;;;;;;9.23;7.53;;;25.40;52.60;;;;;;5089171;28;20209;-67
2021/08/16 12:56:53;;;;;;;8.13;7.07;;;25.40;53.00;;;;;;5089878;28;20212;-65
2021/08/16 12:59:22;;;;;;;7.70;6.90;;;25.40;53.40;;;;;;5089377;28;20209;-64
2021/08/16 13:01:58;;;;;;;10.03;6.57;;;25.30;52.80;;;;;;5091671;28;20236;-64
2021/08/16 13:04:31;;;;;;;6.43;5.77;;;25.20;52.90;;;;;;5091030;28;20196;-65
2021/08/16 13:07:03;;;;;;;8.00;5.97;;;25.10;53.30;;;;;;5089516;28;20200;-64
2021/08/16 13:09:35;;;;;;;8.10;6.20;;;25.10;53.80;;;;;;5089245;28;20209;-64
2021/08/16 13:12:24;;;;;;;6.77;5.63;;;25.10;53.70;;;;;;5089354;28;20688;-66
2021/08/16 13:14:56;;;;;;;8.90;5.60;;;25.10;53.70;;;;;;5090814;28;20201;-67
2021/08/16 13:17:23;;;;;;;6.30;5.23;;;25.20;53.80;;;;;;5092650;28;20235;-64